createdAt,value
2023-05-15T00:15:00.026Z,0.00
2023-05-15T00:16:00.048Z,0.00
2023-05-15T00:16:59.645Z,0.00
2023-05-15T00:17:59.651Z,0.00
2023-05-15T00:18:59.664Z,0.00
2023-05-15T00:19:59.605Z,0.00
2023-05-15T00:20:59.642Z,0.00
2023-05-15T00:21:59.540Z,0.00
2023-05-15T00:22:59.590Z,0.00
2023-05-15T00:23:59.524Z,0.00
2023-05-15T00:25:00.352Z,0.00
2023-05-15T00:25:59.498Z,0.00
2023-05-15T00:26:59.493Z,0.00
2023-05-15T00:27:59.502Z,0.00
2023-05-15T00:29:00.492Z,0.00
2023-05-15T00:29:59.503Z,0.00
2023-05-15T00:31:00.314Z,0.00
2023-05-15T00:31:59.433Z,0.00
2023-05-15T00:32:59.472Z,0.00
2023-05-15T00:33:59.398Z,0.00
2023-05-15T00:35:00.142Z,0.00
2023-05-15T00:35:59.337Z,0.00
2023-05-15T00:36:59.367Z,0.00
2023-05-15T00:37:59.323Z,0.00
2023-05-15T00:38:59.328Z,0.00
2023-05-15T00:39:59.332Z,0.00
2023-05-15T00:40:59.319Z,0.00
2023-05-15T00:42:01.855Z,0.00
2023-05-15T00:42:59.279Z,0.00
2023-05-15T00:43:59.394Z,0.00
2023-05-15T00:44:59.232Z,0.00
2023-05-15T00:45:59.267Z,0.00
2023-05-15T00:46:59.271Z,0.00
2023-05-15T00:47:59.353Z,0.00
2023-05-15T00:49:00.124Z,0.00
2023-05-15T00:49:59.187Z,0.00
2023-05-15T00:50:59.191Z,0.00
2023-05-15T00:51:59.185Z,0.00
2023-05-15T00:52:59.174Z,0.00
2023-05-15T00:53:59.243Z,0.00
2023-05-15T00:54:59.169Z,0.00
2023-05-15T00:55:59.073Z,0.00
2023-05-15T00:57:00.140Z,0.00
2023-05-15T00:57:59.073Z,0.00
2023-05-15T00:58:59.066Z,0.00
2023-05-15T00:59:59.063Z,0.00
2023-05-15T01:00:59.038Z,0.00
2023-05-15T01:01:59.035Z,0.00
2023-05-15T01:02:59.108Z,0.00
2023-05-15T01:03:58.995Z,0.00
2023-05-15T01:04:58.930Z,0.00
2023-05-15T01:05:58.943Z,0.00
2023-05-15T01:06:58.959Z,0.00
2023-05-15T01:07:58.928Z,0.00
2023-05-15T01:08:58.929Z,0.00
2023-05-15T01:09:58.947Z,0.00
2023-05-15T01:10:58.902Z,0.00
2023-05-15T01:11:58.852Z,0.00
2023-05-15T01:12:58.850Z,0.00
2023-05-15T01:13:58.854Z,0.00
2023-05-15T01:14:58.828Z,0.00
2023-05-15T01:15:59.828Z,0.00
2023-05-15T01:16:58.843Z,0.00
2023-05-15T01:17:58.818Z,0.00
2023-05-15T01:18:58.878Z,0.00
2023-05-15T01:19:58.974Z,0.00
2023-05-15T01:20:58.774Z,0.00
2023-05-15T01:21:58.746Z,0.00
2023-05-15T01:22:58.776Z,0.00
2023-05-15T01:23:58.729Z,0.00
2023-05-15T01:24:58.642Z,0.00
2023-05-15T01:25:59.578Z,0.00
2023-05-15T01:26:58.635Z,0.00
2023-05-15T01:27:58.615Z,0.00
2023-05-15T01:28:58.673Z,0.00
2023-05-15T01:29:58.665Z,0.00
2023-05-15T01:30:59.365Z,0.00
2023-05-15T01:31:58.656Z,0.00
2023-05-15T01:32:59.465Z,0.00
2023-05-15T01:33:58.565Z,0.00
2023-05-15T01:34:58.515Z,0.00
2023-05-15T01:35:59.400Z,0.00
2023-05-15T01:36:58.508Z,0.00
2023-05-15T01:37:58.467Z,0.00
2023-05-15T01:38:58.453Z,0.00
2023-05-15T01:39:58.474Z,0.00
2023-05-15T01:40:58.481Z,0.00
2023-05-15T01:41:58.397Z,0.00
2023-05-15T01:42:58.391Z,0.00
2023-05-15T01:43:58.426Z,0.00
2023-05-15T01:44:58.953Z,0.00
2023-05-15T01:45:58.393Z,0.00
2023-05-15T01:46:58.365Z,0.00
2023-05-15T01:47:58.368Z,0.00
2023-05-15T01:48:58.309Z,0.00
2023-05-15T01:49:58.338Z,0.00
2023-05-15T01:50:58.332Z,0.00
2023-05-15T01:51:58.257Z,0.00
2023-05-15T01:52:58.305Z,0.00
2023-05-15T01:53:58.255Z,0.00
2023-05-15T01:54:58.224Z,0.00
2023-05-15T01:55:58.293Z,0.00
2023-05-15T01:56:58.193Z,0.00
2023-05-15T01:57:58.182Z,0.00
2023-05-15T01:58:58.199Z,0.00
2023-05-15T01:59:58.997Z,0.00
2023-05-15T02:00:58.176Z,0.00
2023-05-15T02:01:58.270Z,0.00
2023-05-15T02:02:58.146Z,0.00
2023-05-15T02:03:58.236Z,0.00
2023-05-15T02:04:58.097Z,0.00
2023-05-15T02:05:58.090Z,0.00
2023-05-15T02:06:58.040Z,0.00
2023-05-15T02:07:58.103Z,0.00
2023-05-15T02:08:58.098Z,0.00
2023-05-15T02:09:58.180Z,0.00
2023-05-15T02:10:58.107Z,0.00
2023-05-15T02:11:58.025Z,0.00
2023-05-15T02:12:57.972Z,0.00
2023-05-15T02:13:58.016Z,0.00
2023-05-15T02:14:57.980Z,0.00
2023-05-15T02:15:58.057Z,0.00
2023-05-15T02:16:58.821Z,0.00
2023-05-15T02:17:57.929Z,0.00
2023-05-15T02:18:57.930Z,0.00
2023-05-15T02:19:57.869Z,0.00
2023-05-15T02:20:57.889Z,0.00
2023-05-15T02:21:57.861Z,0.00
2023-05-15T02:22:57.905Z,0.00
2023-05-15T02:23:57.840Z,0.00
2023-05-15T02:24:57.862Z,0.00
2023-05-15T02:25:58.120Z,0.00
2023-05-15T02:26:57.798Z,0.00
2023-05-15T02:27:57.796Z,0.00
2023-05-15T02:28:57.784Z,0.00
2023-05-15T02:29:57.888Z,0.00
2023-05-15T02:30:57.723Z,0.00
2023-05-15T02:31:57.770Z,0.00
2023-05-15T02:32:57.774Z,0.00
2023-05-15T02:33:57.689Z,0.00
2023-05-15T02:34:57.762Z,0.00
2023-05-15T02:35:57.683Z,0.00
2023-05-15T02:36:57.721Z,0.00
2023-05-15T02:37:59.239Z,4.00
2023-05-15T02:38:57.685Z,4.00
2023-05-15T02:39:58.128Z,4.00
2023-05-15T02:40:57.646Z,4.00
2023-05-15T02:41:57.839Z,0.00
2023-05-15T02:42:57.906Z,4.00
2023-05-15T02:44:00.468Z,4.00
2023-05-15T02:44:57.578Z,4.00
2023-05-15T02:45:57.693Z,8.00
2023-05-15T02:46:57.556Z,4.00
2023-05-15T02:47:57.625Z,8.00
2023-05-15T02:48:57.544Z,8.00
2023-05-15T02:49:57.602Z,8.00
2023-05-15T02:50:57.551Z,8.00
2023-05-15T02:51:57.584Z,12.00
2023-05-15T02:52:57.512Z,16.00
2023-05-15T02:53:57.456Z,16.00
2023-05-15T02:54:57.471Z,20.00
2023-05-15T02:55:57.438Z,16.00
2023-05-15T02:56:57.563Z,24.00
2023-05-15T02:57:57.508Z,28.00
2023-05-15T02:58:57.435Z,32.00
2023-05-15T02:59:57.895Z,36.00
2023-05-15T03:00:57.440Z,36.00
2023-05-15T03:01:57.545Z,40.00
2023-05-15T03:02:57.922Z,48.00
2023-05-15T03:04:04.007Z,52.00
2023-05-15T03:05:01.407Z,60.00
2023-05-15T03:05:59.138Z,68.00
2023-05-15T03:06:58.518Z,76.00
2023-05-15T03:07:57.274Z,84.00
2023-05-15T03:09:02.416Z,96.00
2023-05-15T03:10:01.394Z,104.00
2023-05-15T03:11:07.475Z,112.00
2023-05-15T03:11:58.877Z,128.00
2023-05-15T03:13:00.317Z,140.00
2023-05-15T03:13:59.521Z,152.00
2023-05-15T03:15:00.391Z,168.00
2023-05-15T03:15:59.069Z,184.00
2023-05-15T03:16:57.833Z,200.00
2023-05-15T03:17:57.459Z,212.00
2023-05-15T03:18:57.301Z,232.00
2023-05-15T03:20:00.076Z,252.00
2023-05-15T03:20:59.591Z,268.00
2023-05-15T03:22:00.401Z,292.00
2023-05-15T03:22:57.867Z,312.00
2023-05-15T03:23:57.835Z,340.00
2023-05-15T03:24:59.455Z,364.00
2023-05-15T03:25:58.238Z,388.00
2023-05-15T03:26:58.327Z,416.00
2023-05-15T03:27:58.309Z,444.00
2023-05-15T03:28:59.155Z,476.00
2023-05-15T03:29:57.278Z,508.00
2023-05-15T03:30:57.625Z,540.00
2023-05-15T03:31:59.607Z,572.00
2023-05-15T03:32:59.043Z,604.00
2023-05-15T03:33:57.151Z,636.00
2023-05-15T03:34:57.360Z,676.00
2023-05-15T03:35:56.982Z,716.00
2023-05-15T03:36:57.906Z,756.00
2023-05-15T03:37:56.986Z,796.00
2023-05-15T03:38:57.386Z,836.00
2023-05-15T03:39:56.898Z,876.00
2023-05-15T03:40:57.029Z,920.00
2023-05-15T03:41:56.820Z,960.00
2023-05-15T03:42:56.751Z,1008.00
2023-05-15T03:43:56.922Z,1052.00
2023-05-15T03:44:56.841Z,1096.00
2023-05-15T03:45:56.917Z,1140.00
2023-05-15T03:46:56.851Z,1188.00
2023-05-15T03:47:56.807Z,1232.00
2023-05-15T03:48:56.850Z,1280.00
2023-05-15T03:49:56.796Z,1332.00
2023-05-15T03:50:56.864Z,1380.00
2023-05-15T03:51:56.774Z,1428.00
2023-05-15T03:52:56.780Z,1484.00
2023-05-15T03:53:56.713Z,1532.00
2023-05-15T03:54:57.242Z,1584.00
2023-05-15T03:55:56.638Z,1640.00
2023-05-15T03:56:56.631Z,1688.00
2023-05-15T03:57:56.553Z,1736.00
2023-05-15T03:58:56.588Z,1784.00
2023-05-15T03:59:56.821Z,1828.00
2023-05-15T04:00:56.669Z,1876.00
2023-05-15T04:02:57.666Z,1976.00
2023-05-15T04:03:56.610Z,2028.00
2023-05-15T04:04:56.500Z,2076.00
2023-05-15T04:05:56.470Z,2120.00
2023-05-15T04:06:56.472Z,2168.00
2023-05-15T04:07:56.503Z,2220.00
2023-05-15T04:08:56.496Z,2276.00
2023-05-15T04:09:56.446Z,2328.00
2023-05-15T04:10:56.426Z,2376.00
2023-05-15T04:11:56.446Z,2432.00
2023-05-15T04:12:56.431Z,2484.00
2023-05-15T04:13:56.382Z,2528.00
2023-05-15T04:14:56.349Z,2580.00
2023-05-15T04:15:56.435Z,2640.00
2023-05-15T04:16:56.368Z,2696.00
2023-05-15T04:17:57.249Z,2760.00
2023-05-15T04:18:56.341Z,2820.00
2023-05-15T04:19:56.310Z,2892.00
2023-05-15T04:20:56.289Z,2956.00
2023-05-15T04:21:56.247Z,3012.00
2023-05-15T04:22:56.191Z,3056.00
2023-05-15T04:23:56.190Z,3096.00
2023-05-15T04:24:56.182Z,3156.00
2023-05-15T04:25:56.224Z,3216.00
2023-05-15T04:26:56.186Z,3264.00
2023-05-15T04:27:56.189Z,3308.00
2023-05-15T04:29:03.521Z,3356.00
2023-05-15T04:29:57.114Z,3424.00
2023-05-15T04:30:56.226Z,3488.00
2023-05-15T04:31:56.134Z,3544.00
2023-05-15T04:32:56.226Z,3600.00
2023-05-15T04:33:56.113Z,3660.00
2023-05-15T04:34:56.036Z,3716.00
2023-05-15T04:35:56.079Z,3772.00
2023-05-15T04:36:56.023Z,3832.00
2023-05-15T04:37:56.007Z,3888.00
2023-05-15T04:38:56.119Z,3956.00
2023-05-15T04:39:56.025Z,4020.00
2023-05-15T04:40:55.928Z,4084.00
2023-05-15T04:41:55.954Z,4152.00
2023-05-15T04:42:56.021Z,4208.00
2023-05-15T04:43:55.891Z,4268.00
2023-05-15T04:44:55.951Z,4324.00
2023-05-15T04:45:55.933Z,4376.00
2023-05-15T04:46:55.901Z,4428.00
2023-05-15T04:47:55.918Z,4472.00
2023-05-15T04:48:55.908Z,4516.00
2023-05-15T04:49:55.824Z,4564.00
2023-05-15T04:50:55.872Z,4608.00
2023-05-15T04:51:55.853Z,4652.00
2023-05-15T04:52:55.858Z,4700.00
2023-05-15T04:53:55.785Z,4756.00
2023-05-15T04:54:56.120Z,4816.00
2023-05-15T04:55:55.894Z,4920.00
2023-05-15T04:56:55.800Z,5064.00
2023-05-15T04:57:55.784Z,5184.00
2023-05-15T04:58:55.696Z,5224.00
2023-05-15T04:59:55.784Z,5228.00
2023-05-15T05:00:55.779Z,5244.00
2023-05-15T05:01:55.916Z,5288.00
2023-05-15T05:02:55.793Z,5324.00
2023-05-15T05:03:55.649Z,5360.00
2023-05-15T05:04:55.729Z,5396.00
2023-05-15T05:05:55.606Z,5440.00
2023-05-15T05:06:55.597Z,5464.00
2023-05-15T05:07:55.649Z,5540.00
2023-05-15T05:08:55.621Z,5636.00
2023-05-15T05:09:55.628Z,5748.00
2023-05-15T05:10:55.542Z,5828.00
2023-05-15T05:11:55.544Z,5952.00
2023-05-15T05:12:55.528Z,5984.00
2023-05-15T05:13:55.741Z,6048.00
2023-05-15T05:14:55.471Z,6288.00
2023-05-15T05:15:55.491Z,6384.00
2023-05-15T05:16:55.717Z,6192.00
2023-05-15T05:17:55.548Z,6104.00
2023-05-15T05:18:55.479Z,6132.00
2023-05-15T05:19:55.434Z,6184.00
2023-05-15T05:20:55.378Z,6252.00
2023-05-15T05:21:56.126Z,6320.00
2023-05-15T05:22:55.422Z,6392.00
2023-05-15T05:23:56.184Z,6444.00
2023-05-15T05:24:55.441Z,6492.00
2023-05-15T05:25:55.344Z,6524.00
2023-05-15T05:26:55.380Z,6564.00
2023-05-15T05:27:55.454Z,6604.00
2023-05-15T05:28:56.038Z,6656.00
2023-05-15T05:29:55.267Z,6700.00
2023-05-15T05:30:55.269Z,6736.00
2023-05-15T05:31:55.306Z,6804.00
2023-05-15T05:32:55.277Z,6912.00
2023-05-15T05:33:55.314Z,7092.00
2023-05-15T05:34:55.286Z,7292.00
2023-05-15T05:35:55.198Z,7528.00
2023-05-15T05:36:55.230Z,7692.00
2023-05-15T05:37:55.736Z,7612.00
2023-05-15T05:38:55.159Z,7484.00
2023-05-15T05:39:55.135Z,7712.00
2023-05-15T05:40:55.159Z,8060.00
2023-05-15T05:41:55.128Z,8404.00
2023-05-15T05:42:55.071Z,8716.00
2023-05-15T05:43:55.085Z,8672.00
2023-05-15T05:44:55.084Z,8676.00
2023-05-15T05:45:55.056Z,9220.00
2023-05-15T05:46:55.132Z,9604.00
2023-05-15T05:47:55.059Z,9980.00
2023-05-15T05:48:55.001Z,10424.00
2023-05-15T05:49:55.022Z,10428.00
2023-05-15T05:50:54.970Z,10276.00
2023-05-15T05:51:55.055Z,10288.00
2023-05-15T05:52:54.995Z,10460.00
2023-05-15T05:53:54.945Z,10784.00
2023-05-15T05:54:54.960Z,11224.00
2023-05-15T05:55:54.913Z,11620.00
2023-05-15T05:56:54.916Z,12032.00
2023-05-15T05:57:54.961Z,12280.00
2023-05-15T05:58:54.907Z,12892.00
2023-05-15T05:59:54.860Z,13188.00
2023-05-15T06:00:54.830Z,13228.00
2023-05-15T06:01:54.940Z,12824.00
2023-05-15T06:02:54.939Z,11672.00
2023-05-15T06:03:54.937Z,10664.00
2023-05-15T06:04:54.885Z,10324.00
2023-05-15T06:05:55.023Z,10208.00
2023-05-15T06:06:54.744Z,10200.00
2023-05-15T06:07:54.744Z,10172.00
2023-05-15T06:08:56.517Z,10184.00
2023-05-15T06:09:55.699Z,10196.00
2023-05-15T06:10:54.685Z,10192.00
2023-05-15T06:11:54.727Z,10192.00
2023-05-15T06:12:54.791Z,10188.00
2023-05-15T06:13:54.752Z,10160.00
2023-05-15T06:14:54.621Z,10236.00
2023-05-15T06:15:54.589Z,10312.00
2023-05-15T06:16:54.693Z,10388.00
2023-05-15T06:17:54.690Z,10480.00
2023-05-15T06:18:54.591Z,10572.00
2023-05-15T06:19:54.542Z,10628.00
2023-05-15T06:20:54.640Z,10664.00
2023-05-15T06:21:54.557Z,10708.00
2023-05-15T06:22:54.528Z,10736.00
2023-05-15T06:23:54.511Z,10788.00
2023-05-15T06:24:54.574Z,10856.00
2023-05-15T06:25:54.476Z,10884.00
2023-05-15T06:26:54.570Z,10928.00
2023-05-15T06:27:54.442Z,10988.00
2023-05-15T06:28:54.467Z,11040.00
2023-05-15T06:29:54.474Z,11100.00
2023-05-15T06:30:54.462Z,11116.00
2023-05-15T06:31:54.400Z,11136.00
2023-05-15T06:32:54.385Z,11144.00
2023-05-15T06:33:54.426Z,11168.00
2023-05-15T06:34:54.420Z,11184.00
2023-05-15T06:35:54.339Z,11220.00
2023-05-15T06:36:54.329Z,11308.00
2023-05-15T06:37:54.944Z,11356.00
2023-05-15T06:38:54.390Z,11428.00
2023-05-15T06:39:54.282Z,11492.00
2023-05-15T06:40:54.291Z,11552.00
2023-05-15T06:41:54.264Z,11624.00
2023-05-15T06:42:54.249Z,11688.00
2023-05-15T06:43:54.221Z,11780.00
2023-05-15T06:44:54.252Z,11868.00
2023-05-15T06:45:54.244Z,12040.00
2023-05-15T06:46:54.275Z,12248.00
2023-05-15T06:47:54.253Z,12144.00
2023-05-15T06:48:54.181Z,12040.00
2023-05-15T06:49:54.187Z,12916.00
2023-05-15T06:50:54.259Z,14300.00
2023-05-15T06:51:54.181Z,19168.00
2023-05-15T06:52:54.150Z,24960.00
2023-05-15T06:53:54.120Z,26560.00
2023-05-15T06:54:54.099Z,27136.00
2023-05-15T06:55:54.085Z,25344.00
2023-05-15T06:56:54.124Z,25408.00
2023-05-15T06:57:54.253Z,26912.00
2023-05-15T06:58:54.033Z,27776.00
2023-05-15T06:59:54.026Z,27616.00
2023-05-15T07:00:55.548Z,27968.00
2023-05-15T07:01:54.076Z,28544.00
2023-05-15T07:02:54.039Z,29056.00
2023-05-15T07:03:54.032Z,30112.00
2023-05-15T07:04:54.018Z,30656.00
2023-05-15T07:05:53.963Z,30304.00
2023-05-15T07:06:53.964Z,29824.00
2023-05-15T07:07:53.943Z,29920.00
2023-05-15T07:08:53.889Z,30432.00
2023-05-15T07:09:53.897Z,30560.00
2023-05-15T07:10:53.926Z,31360.00
2023-05-15T07:11:53.928Z,32288.00
2023-05-15T07:12:53.812Z,32800.00
2023-05-15T07:13:53.867Z,32608.00
2023-05-15T07:14:54.033Z,32832.00
2023-05-15T07:15:53.935Z,33600.00
2023-05-15T07:16:53.845Z,34464.00
2023-05-15T07:17:53.949Z,34752.00
2023-05-15T07:18:53.839Z,34752.00
2023-05-15T07:19:54.142Z,35296.00
2023-05-15T07:20:53.733Z,35072.00
2023-05-15T07:21:53.952Z,36736.00
2023-05-15T07:22:56.827Z,38912.00
2023-05-15T07:23:54.180Z,39264.00
2023-05-15T07:24:53.765Z,39744.00
2023-05-15T07:25:53.708Z,40544.00
2023-05-15T07:26:58.817Z,40384.00
2023-05-15T07:27:54.797Z,40896.00
2023-05-15T07:28:54.295Z,41152.00
2023-05-15T07:29:53.645Z,41120.00
2023-05-15T07:30:53.610Z,41984.00
2023-05-15T07:31:53.703Z,42624.00
2023-05-15T07:32:53.849Z,42080.00
2023-05-15T07:33:53.536Z,41920.00
2023-05-15T07:34:55.009Z,41280.00
2023-05-15T07:35:53.529Z,40768.00
2023-05-15T07:36:54.511Z,41184.00
2023-05-15T07:37:53.549Z,42144.00
2023-05-15T07:38:53.758Z,42688.00
2023-05-15T07:39:53.579Z,42560.00
2023-05-15T07:40:54.293Z,44064.00
2023-05-15T07:41:53.589Z,44768.00
2023-05-15T07:42:53.493Z,44288.00
2023-05-15T07:43:53.529Z,43456.00
2023-05-15T07:44:53.465Z,43232.00
2023-05-15T07:45:54.360Z,45344.00
2023-05-15T07:46:54.152Z,46816.00
2023-05-15T07:47:54.241Z,46080.00
2023-05-15T07:48:54.347Z,44736.00
2023-05-15T07:49:53.871Z,43552.00
2023-05-15T07:50:53.678Z,43872.00
2023-05-15T07:51:53.947Z,44416.00
2023-05-15T07:52:53.293Z,44384.00
2023-05-15T07:53:53.514Z,44160.00
2023-05-15T07:54:54.797Z,42176.00
2023-05-15T07:55:53.333Z,43360.00
2023-05-15T07:56:54.152Z,44032.00
2023-05-15T07:57:54.177Z,44608.00
2023-05-15T07:58:53.849Z,43424.00
2023-05-15T07:59:53.310Z,45024.00
2023-05-15T08:00:53.378Z,45504.00
2023-05-15T08:01:53.201Z,45856.00
2023-05-15T08:02:53.354Z,46048.00
2023-05-15T08:03:53.254Z,45792.00
2023-05-15T08:04:53.430Z,46432.00
2023-05-15T08:05:55.670Z,46560.00
2023-05-15T08:06:53.741Z,47616.00
2023-05-15T08:08:00.657Z,46848.00
2023-05-15T08:08:54.178Z,46336.00
2023-05-15T22:30:43.464Z,0.00
2023-05-15T22:31:43.324Z,0.00
2023-05-15T22:32:43.430Z,0.00
2023-05-15T22:33:43.278Z,0.00
2023-05-15T22:34:43.369Z,0.00
2023-05-15T22:35:44.153Z,0.00
2023-05-15T22:36:43.228Z,0.00
2023-05-15T22:37:43.458Z,0.00
2023-05-15T22:38:43.275Z,0.00
2023-05-15T22:39:43.240Z,0.00
2023-05-15T22:40:43.158Z,0.00
2023-05-15T22:41:43.245Z,0.00
2023-05-15T22:42:43.143Z,0.00
2023-05-15T22:43:43.143Z,0.00
2023-05-15T22:44:43.179Z,0.00
2023-05-15T22:45:43.132Z,0.00
2023-05-15T22:46:43.097Z,0.00
2023-05-15T22:47:43.162Z,0.00
2023-05-15T22:48:43.060Z,0.00
2023-05-15T22:49:43.119Z,0.00
2023-05-15T22:50:43.006Z,0.00
2023-05-15T22:51:42.992Z,0.00
2023-05-15T22:52:42.994Z,0.00
2023-05-15T22:53:43.055Z,0.00
2023-05-15T22:54:42.968Z,0.00
2023-05-15T22:55:43.082Z,0.00
2023-05-15T22:56:42.961Z,0.00
2023-05-15T22:57:43.007Z,0.00
2023-05-15T22:58:42.985Z,0.00
2023-05-15T22:59:42.894Z,0.00
2023-05-15T23:00:43.819Z,0.00
2023-05-15T23:01:43.073Z,0.00
2023-05-15T23:02:44.813Z,0.00
2023-05-15T23:03:42.947Z,0.00
2023-05-15T23:04:42.871Z,0.00
2023-05-15T23:05:42.822Z,0.00
2023-05-15T23:06:42.775Z,0.00
2023-05-15T23:07:42.812Z,0.00
2023-05-15T23:08:42.974Z,0.00
2023-05-15T23:09:42.838Z,0.00
2023-05-15T23:10:42.699Z,0.00
2023-05-15T23:11:43.080Z,0.00
2023-05-15T23:12:42.731Z,0.00
2023-05-15T23:13:42.727Z,0.00
2023-05-15T23:14:42.699Z,0.00
2023-05-15T23:15:42.734Z,0.00
2023-05-15T23:16:42.658Z,0.00
2023-05-15T23:17:42.768Z,0.00
2023-05-15T23:18:42.686Z,0.00
2023-05-15T23:19:43.583Z,0.00
2023-05-15T23:20:42.576Z,0.00
2023-05-15T23:21:42.598Z,0.00
2023-05-15T23:22:42.578Z,0.00
2023-05-15T23:23:42.555Z,0.00
2023-05-15T23:24:42.672Z,0.00
2023-05-15T23:25:42.558Z,0.00
2023-05-15T23:26:42.528Z,0.00
2023-05-15T23:27:42.469Z,0.00
2023-05-15T23:28:42.539Z,0.00
2023-05-15T23:29:42.574Z,0.00
2023-05-15T23:30:42.434Z,0.00
2023-05-15T23:31:43.417Z,0.00
2023-05-15T23:32:42.479Z,0.00
2023-05-15T23:33:42.482Z,0.00
2023-05-15T23:34:42.397Z,0.00
2023-05-15T23:35:42.386Z,0.00
2023-05-15T23:36:42.460Z,0.00
2023-05-15T23:37:42.437Z,0.00
2023-05-15T23:38:42.375Z,0.00
2023-05-15T23:39:42.373Z,0.00
2023-05-15T23:40:42.328Z,0.00
2023-05-15T23:41:42.350Z,0.00
2023-05-15T23:42:42.419Z,0.00
2023-05-15T23:43:42.337Z,0.00
2023-05-15T23:44:42.269Z,0.00
2023-05-15T23:45:42.226Z,0.00
2023-05-15T23:46:42.342Z,0.00
2023-05-15T23:47:42.558Z,0.00
2023-05-15T23:48:42.302Z,0.00
2023-05-15T23:49:42.180Z,0.00
2023-05-15T23:50:42.224Z,0.00
2023-05-15T23:51:42.216Z,0.00
2023-05-15T23:52:42.162Z,0.00
2023-05-15T23:53:42.135Z,0.00
2023-05-15T23:54:42.122Z,0.00
2023-05-15T23:55:42.176Z,0.00
2023-05-15T23:56:42.348Z,0.00
2023-05-15T23:57:42.139Z,0.00
2023-05-15T23:58:42.467Z,0.00
2023-05-15T23:59:42.136Z,0.00
